Time;durP1;ratioP1;P1;durP2;ratioP2;P2;SDS_P1;SDS_P2;PMS_P1;PMS_P2;Temp;Humidity;BMP_temperature;BMP_pressure;BME280_temperature;BME280_humidity;BME280_pressure;Samples;Min_cycle;Max_cycle;Signal;HPM_P1;HPM_P2
2021/03/15 00:01:59;;;;;;;1.80;1.70;;;7.30;99.90;;;;;;5126540;27;20450;-79
2021/03/15 00:04:46;;;;;;;3.10;1.80;;;7.00;99.90;;;;;;5129240;27;20238;-75
2021/03/15 00:07:34;;;;;;;1.80;1.70;;;6.90;99.90;;;;;;5126990;27;20450;-77
2021/03/15 00:10:23;;;;;;;1.87;1.73;;;7.20;99.90;;;;;;5122158;27;20456;-77
2021/03/15 00:13:11;;;;;;;2.20;1.95;;;6.80;99.90;;;;;;5120364;27;20462;-81
2021/03/15 00:15:59;;;;;;;1.90;1.80;;;6.70;99.90;;;;;;5138033;27;20225;-79
2021/03/15 00:18:46;;;;;;;1.77;1.67;;;6.90;99.90;;;;;;5123170;27;20240;-78
2021/03/15 00:21:34;;;;;;;3.83;2.00;;;6.60;99.90;;;;;;5131666;27;20567;-78
2021/03/15 00:24:21;;;;;;;3.50;2.33;;;6.80;99.90;;;;;;5114495;27;20214;-79
2021/03/15 00:27:09;;;;;;;1.60;1.50;;;6.80;99.90;;;;;;5129532;27;20206;-78
2021/03/15 00:29:57;;;;;;;2.30;1.70;;;6.80;99.90;;;;;;5128878;27;20591;-77
2021/03/15 00:32:46;;;;;;;2.13;1.80;;;6.80;99.90;;;;;;5113263;28;21111;-77
2021/03/15 00:35:34;;;;;;;2.95;2.08;;;6.80;99.90;;;;;;5122229;27;20265;-81
2021/03/15 00:38:21;;;;;;;2.73;2.00;;;6.80;99.90;;;;;;5121946;27;20225;-77
2021/03/15 00:41:09;;;;;;;1.90;1.60;;;6.80;99.90;;;;;;5121254;27;20480;-79
2021/03/15 00:43:58;;;;;;;2.15;1.65;;;6.80;99.90;;;;;;5117078;27;20211;-79
2021/03/15 00:46:45;;;;;;;1.67;1.20;;;6.80;99.90;;;;;;5121758;27;20207;-78
2021/03/15 00:49:33;;;;;;;1.73;1.63;;;7.00;99.90;;;;;;5125046;27;20609;-80
2021/03/15 00:52:21;;;;;;;2.53;1.60;;;6.90;99.90;;;;;;5111691;27;20224;-79
2021/03/15 00:55:09;;;;;;;1.67;1.58;;;7.10;99.90;;;;;;5114222;27;20207;-78
2021/03/15 00:57:57;;;;;;;1.80;1.33;;;6.80;99.90;;;;;;5129923;27;20241;-78
2021/03/15 01:00:46;;;;;;;2.53;2.33;;;6.80;99.90;;;;;;5123361;27;20210;-77
2021/03/15 01:03:34;;;;;;;2.40;1.73;;;7.20;99.90;;;;;;5130366;27;20289;-79
2021/03/15 01:06:21;;;;;;;3.47;1.90;;;6.70;99.90;;;;;;5122269;27;20618;-78
2021/03/15 01:09:09;;;;;;;3.03;1.50;;;6.50;99.90;;;;;;5128281;27;20308;-78
2021/03/15 01:11:57;;;;;;;5.60;2.75;;;6.80;99.90;;;;;;5125139;27;20290;-77
2021/03/15 01:14:44;;;;;;;1.67;1.50;;;6.60;99.90;;;;;;5117143;27;20216;-77
2021/03/15 01:17:33;;;;;;;1.43;1.33;;;6.50;99.90;;;;;;5121960;27;20218;-77
2021/03/15 01:20:21;;;;;;;4.00;2.78;;;6.50;99.90;;;;;;5125988;27;20451;-78
2021/03/15 01:23:08;;;;;;;1.90;1.40;;;6.60;99.90;;;;;;5131717;27;20220;-79
2021/03/15 01:25:56;;;;;;;1.60;1.50;;;6.90;99.90;;;;;;5126866;27;20288;-78
2021/03/15 01:28:43;;;;;;;1.77;1.35;;;6.30;99.90;;;;;;5120410;27;20234;-79
2021/03/15 01:31:31;;;;;;;2.85;1.45;;;6.20;99.90;;;;;;5130236;27;20213;-77
2021/03/15 01:34:20;;;;;;;3.95;1.85;;;6.20;99.90;;;;;;5123402;27;20212;-79
2021/03/15 01:37:22;;;;;;;3.17;2.08;;;6.60;1.00;;;;;;5123251;27;20236;-78
2021/03/15 01:40:10;;;;;;;2.50;1.52;;;6.10;1.00;;;;;;5116893;27;20686;-78
2021/03/15 01:42:58;;;;;;;2.75;1.80;;;6.10;1.00;;;;;;5117729;27;20221;-77
2021/03/15 01:45:45;;;;;;;2.35;1.50;;;6.10;1.00;;;;;;5111112;28;20246;-80
2021/03/15 01:48:33;;;;;;;3.70;1.70;;;6.20;1.00;;;;;;5129198;27;20241;-77
2021/03/15 01:51:22;;;;;;;3.75;1.73;;;6.20;1.00;;;;;;5124567;27;20211;-77
2021/03/15 01:54:10;;;;;;;1.50;1.40;;;6.20;1.00;;;;;;5131786;27;20301;-80
2021/03/15 01:56:57;;;;;;;1.90;1.60;;;6.30;1.00;;;;;;5131740;27;20677;-78
2021/03/15 01:59:45;;;;;;;2.15;1.52;;;6.30;1.00;;;;;;5123551;27;20222;-79
2021/03/15 02:02:35;;;;;;;2.45;1.42;;;6.40;1.00;;;;;;5133046;27;20218;-81
2021/03/15 02:05:22;;;;;;;1.73;1.33;;;6.50;1.00;;;;;;5125928;27;20274;-79
2021/03/15 02:08:12;;;;;;;3.20;1.40;;;6.50;1.00;;;;;;5127652;27;20236;-80
2021/03/15 02:11:11;;;;;;;3.60;1.98;;;6.50;1.00;;;;;;5136037;28;20768;-79
2021/03/15 02:14:12;;;;;;;3.55;1.92;;;6.70;99.90;;;;;;5138701;28;20207;-78
2021/03/15 02:17:04;;;;;;;3.42;1.75;;;6.80;99.90;;;;;;5139509;28;20233;-82
2021/03/15 02:20:24;;;;;;;4.00;1.67;;;6.80;99.90;;;;;;5134824;28;20366;-83
2021/03/15 02:23:19;;;;;;;5.53;1.60;;;6.70;99.90;;;;;;5129696;27;20214;-79
2021/03/15 02:26:24;;;;;;;3.72;1.75;;;6.70;99.90;;;;;;5135749;28;20234;-80
2021/03/15 02:29:46;;;;;;;2.33;2.13;;;6.80;99.90;;;;;;5130941;28;20233;-79
2021/03/15 02:33:18;;;;;;;1.50;1.40;;;6.80;99.90;;;;;;5123011;28;20442;-79
2021/03/15 02:36:08;;;;;;;1.80;1.70;;;6.80;99.90;;;;;;5129887;27;20708;-82
2021/03/15 02:38:57;;;;;;;3.47;1.60;;;6.80;99.90;;;;;;5127193;28;20768;-80
2021/03/15 02:41:46;;;;;;;2.97;1.75;;;6.80;99.90;;;;;;5145050;27;20211;-79
2021/03/15 02:44:34;;;;;;;1.75;1.65;;;6.80;99.90;;;;;;5133905;27;20215;-79
2021/03/15 02:47:24;;;;;;;2.17;1.50;;;6.80;99.90;;;;;;5121821;28;20211;-80
2021/03/15 02:50:13;;;;;;;4.30;1.40;;;6.70;99.90;;;;;;5119117;28;20215;-79
2021/03/15 02:53:04;;;;;;;2.55;2.08;;;6.90;99.90;;;;;;5135682;28;20262;-80
2021/03/15 02:55:56;;;;;;;4.13;1.77;;;6.80;99.90;;;;;;5133454;28;20632;-81
2021/03/15 02:58:45;;;;;;;3.90;2.35;;;6.90;99.90;;;;;;5134504;28;20397;-83
2021/03/15 03:01:34;;;;;;;1.95;1.27;;;6.80;99.90;;;;;;5128103;28;20210;-79
2021/03/15 03:04:23;;;;;;;2.22;2.00;;;6.80;99.90;;;;;;5135973;28;20202;-80
2021/03/15 03:07:11;;;;;;;4.55;2.20;;;6.60;99.90;;;;;;5138590;28;20578;-82
2021/03/15 03:10:00;;;;;;;1.67;1.58;;;6.60;99.90;;;;;;5134896;28;20256;-81
2021/03/15 03:12:50;;;;;;;1.50;1.40;;;6.50;99.90;;;;;;5112427;28;20269;-79
2021/03/15 03:15:38;;;;;;;2.85;1.73;;;6.30;99.90;;;;;;5124940;27;20221;-80
2021/03/15 03:18:27;;;;;;;3.58;2.33;;;5.90;1.00;;;;;;5128267;27;20245;-80
2021/03/15 03:21:15;;;;;;;1.90;1.38;;;5.80;1.00;;;;;;5134363;27;20208;-81
2021/03/15 03:24:04;;;;;;;3.05;1.60;;;5.80;19.10;;;;;;5122389;27;20220;-78
2021/03/15 03:26:54;;;;;;;2.95;1.70;;;6.30;1.00;;;;;;5115515;28;20218;-79
2021/03/15 03:29:43;;;;;;;3.00;1.40;;;5.90;1.00;;;;;;5119143;27;20705;-79
2021/03/15 03:32:31;;;;;;;1.52;1.35;;;6.20;1.00;;;;;;5129506;27;20697;-80
2021/03/15 03:35:18;;;;;;;3.72;1.90;;;5.90;1.00;;;;;;5122762;27;20209;-81
2021/03/15 03:38:06;;;;;;;1.58;1.10;;;6.00;1.00;;;;;;5139970;27;20230;-79
2021/03/15 03:40:53;;;;;;;3.42;1.83;;;6.20;1.00;;;;;;5121845;27;20228;-80
2021/03/15 03:43:41;;;;;;;3.15;1.10;;;6.30;1.00;;;;;;5123206;27;20260;-78
2021/03/15 03:46:29;;;;;;;1.50;1.40;;;6.30;1.00;;;;;;5117024;27;20217;-79
2021/03/15 03:49:17;;;;;;;1.73;1.30;;;6.30;1.00;;;;;;5113370;27;20226;-77
2021/03/15 03:52:07;;;;;;;2.15;1.23;;;6.40;1.00;;;;;;5133059;27;20213;-78
2021/03/15 03:54:59;;;;;;;1.23;1.13;;;6.40;1.00;;;;;;5125547;27;20742;-79
2021/03/15 03:57:48;;;;;;;2.00;1.20;;;6.30;1.00;;;;;;5121001;27;20233;-79
2021/03/15 04:00:39;;;;;;;3.72;2.00;;;6.10;1.00;;;;;;5126375;27;20215;-78
2021/03/15 04:03:29;;;;;;;2.60;1.40;;;6.10;1.00;;;;;;5122946;27;20570;-78
2021/03/15 04:06:18;;;;;;;3.97;1.65;;;6.10;1.00;;;;;;5129374;27;20205;-83
2021/03/15 04:09:27;;;;;;;1.60;1.50;;;6.50;1.00;;;;;;5130175;27;20238;-76
2021/03/15 04:12:19;;;;;;;1.77;1.30;;;6.40;1.00;;;;;;5129685;27;20228;-79
2021/03/15 04:15:08;;;;;;;2.40;1.90;;;6.30;1.00;;;;;;5131990;27;20204;-79
2021/03/15 04:17:58;;;;;;;1.70;1.40;;;6.10;1.00;;;;;;5131904;27;20268;-75
2021/03/15 04:20:51;;;;;;;2.33;1.48;;;5.90;1.00;;;;;;5113078;27;20590;-79
2021/03/15 04:23:40;;;;;;;1.70;1.60;;;5.90;99.90;;;;;;5128435;27;20212;-78
2021/03/15 04:26:27;;;;;;;2.97;1.20;;;6.20;1.00;;;;;;5126352;27;20216;-79
2021/03/15 04:29:16;;;;;;;5.15;1.52;;;6.10;1.00;;;;;;5126784;27;20238;-81
2021/03/15 04:32:05;;;;;;;1.88;1.35;;;6.20;4.80;;;;;;5118957;27;20714;-77
2021/03/15 04:34:54;;;;;;;1.23;1.13;;;6.10;1.00;;;;;;5126133;27;20226;-78
2021/03/15 04:37:42;;;;;;;1.40;1.30;;;6.00;99.90;;;;;;5118813;27;20234;-79
2021/03/15 04:40:31;;;;;;;1.63;1.50;;;5.80;99.90;;;;;;5122342;27;20215;-79
2021/03/15 04:43:21;;;;;;;4.30;1.90;;;5.90;99.90;;;;;;5120836;27;20269;-81
2021/03/15 04:46:09;;;;;;;2.95;1.33;;;6.00;99.90;;;;;;5123631;27;20553;-82
2021/03/15 04:48:58;;;;;;;1.60;1.50;;;6.00;51.20;;;;;;5127427;27;20255;-79
2021/03/15 04:51:47;;;;;;;1.42;1.33;;;5.90;99.90;;;;;;5127073;27;20223;-78
2021/03/15 04:54:35;;;;;;;3.05;1.20;;;5.70;99.90;;;;;;5128094;27;20286;-78
2021/03/15 04:57:23;;;;;;;2.00;1.27;;;6.00;1.00;;;;;;5114618;27;20715;-78
2021/03/15 05:00:15;;;;;;;2.13;1.50;;;5.50;1.00;;;;;;5126032;27;20214;-78
2021/03/15 05:03:06;;;;;;;1.80;1.60;;;5.50;1.00;;;;;;5133692;27;20701;-77
2021/03/15 05:05:54;;;;;;;1.30;1.20;;;5.60;1.00;;;;;;5139041;27;20199;-79
2021/03/15 05:08:47;;;;;;;2.58;1.35;;;5.50;1.00;;;;;;5138996;27;20244;-80
2021/03/15 05:11:36;;;;;;;3.75;1.55;;;5.50;99.90;;;;;;5130907;27;20694;-79
2021/03/15 05:14:24;;;;;;;1.95;1.40;;;5.50;99.90;;;;;;5131262;27;20210;-79
2021/03/15 05:17:12;;;;;;;3.15;1.40;;;5.70;1.00;;;;;;5110475;27;20238;-78
2021/03/15 05:20:01;;;;;;;1.73;1.25;;;5.70;1.00;;;;;;5126734;27;20212;-77
2021/03/15 05:22:50;;;;;;;4.10;1.75;;;5.80;1.00;;;;;;5128161;27;20213;-79
2021/03/15 05:25:40;;;;;;;2.83;1.50;;;5.50;99.90;;;;;;5131111;27;20282;-78
2021/03/15 05:28:29;;;;;;;2.05;1.65;;;5.50;1.00;;;;;;5121974;27;20242;-79
2021/03/15 05:31:18;;;;;;;2.45;1.50;;;5.80;1.00;;;;;;5119720;27;20261;-78
2021/03/15 05:34:09;;;;;;;1.80;1.45;;;5.90;1.00;;;;;;5124061;27;20224;-77
2021/03/15 05:36:59;;;;;;;1.30;1.20;;;6.00;99.90;;;;;;5128893;27;20221;-80
2021/03/15 05:39:47;;;;;;;2.13;1.70;;;5.70;99.90;;;;;;5118170;27;22169;-79
2021/03/15 05:43:07;;;;;;;1.70;1.60;;;5.70;1.00;;;;;;5117809;27;20498;-79
2021/03/15 05:46:40;;;;;;;1.90;1.38;;;5.60;1.00;;;;;;5082413;27;20220;-78
2021/03/15 05:49:58;;;;;;;1.70;1.42;;;5.60;1.00;;;;;;5114884;27;20253;-78
2021/03/15 05:52:57;;;;;;;1.50;1.40;;;5.70;1.00;;;;;;5112866;27;20283;-78
2021/03/15 05:56:10;;;;;;;1.25;1.20;;;5.90;99.90;;;;;;5131079;27;20693;-80
2021/03/15 05:59:10;;;;;;;1.98;1.50;;;5.90;99.90;;;;;;5098684;27;20673;-79
2021/03/15 06:02:27;;;;;;;2.40;1.30;;;5.80;99.90;;;;;;5123169;27;20214;-78
2021/03/15 06:05:19;;;;;;;3.05;1.42;;;5.80;99.90;;;;;;5124361;27;20221;-81
2021/03/15 06:08:11;;;;;;;2.13;1.50;;;5.70;99.90;;;;;;5129203;27;20227;-81
2021/03/15 06:11:04;;;;;;;2.15;1.30;;;5.60;1.00;;;;;;5126223;27;20447;-77
2021/03/15 06:13:53;;;;;;;3.38;1.65;;;5.80;1.00;;;;;;5122310;27;20275;-76
2021/03/15 06:16:42;;;;;;;1.65;1.30;;;5.80;99.90;;;;;;5126426;27;20265;-77
2021/03/15 06:19:32;;;;;;;1.40;1.30;;;5.60;1.00;;;;;;5124725;28;20231;-77
2021/03/15 06:22:21;;;;;;;1.77;1.67;;;5.40;11.40;;;;;;5128887;28;20217;-77
2021/03/15 06:25:12;;;;;;;2.67;1.25;;;5.70;1.00;;;;;;5122950;28;20216;-76
2021/03/15 06:28:00;;;;;;;2.85;1.40;;;5.30;99.90;;;;;;5127770;28;20230;-79
2021/03/15 06:30:49;;;;;;;1.77;1.38;;;5.40;99.90;;;;;;5114087;27;20234;-76
2021/03/15 06:33:38;;;;;;;1.52;1.38;;;5.20;99.90;;;;;;5119427;28;20217;-77
2021/03/15 06:36:26;;;;;;;1.85;1.48;;;5.20;1.00;;;;;;5114734;27;20621;-75
2021/03/15 06:39:16;;;;;;;1.35;1.25;;;5.40;1.00;;;;;;5111974;28;20231;-75
2021/03/15 06:42:08;;;;;;;1.45;1.35;;;5.30;99.90;;;;;;5118159;27;20226;-76
2021/03/15 06:44:55;;;;;;;1.42;1.30;;;5.50;99.90;;;;;;5124253;27;20227;-78
2021/03/15 06:47:44;;;;;;;1.10;1.10;;;5.40;99.90;;;;;;5123190;28;20224;-76
2021/03/15 06:50:32;;;;;;;1.42;1.33;;;5.40;99.90;;;;;;5118999;27;20214;-75
2021/03/15 06:53:20;;;;;;;1.63;1.20;;;5.50;99.90;;;;;;5123201;27;20631;-77
2021/03/15 06:56:12;;;;;;;1.35;1.00;;;5.80;99.90;;;;;;5130534;27;20204;-77
2021/03/15 06:58:59;;;;;;;1.40;1.30;;;5.50;1.00;;;;;;5125095;27;21495;-77
2021/03/15 07:01:47;;;;;;;1.40;1.30;;;5.30;1.00;;;;;;5115255;27;20226;-76
2021/03/15 07:04:35;;;;;;;3.40;1.23;;;5.40;1.00;;;;;;5127853;27;20303;-77
2021/03/15 07:07:25;;;;;;;1.50;1.40;;;5.50;1.00;;;;;;5122238;27;20200;-77
2021/03/15 07:10:16;;;;;;;1.15;1.00;;;5.40;99.90;;;;;;5115125;27;20207;-74
2021/03/15 07:13:08;;;;;;;1.40;1.30;;;5.70;99.90;;;;;;5123575;27;20214;-76
2021/03/15 07:15:56;;;;;;;2.70;1.33;;;5.80;99.90;;;;;;5124754;27;20208;-76
2021/03/15 07:18:43;;;;;;;1.30;0.90;;;6.00;1.00;;;;;;5120664;27;20228;-75
2021/03/15 07:21:35;;;;;;;0.95;0.80;;;6.00;1.00;;;;;;5128847;27;20222;-77
2021/03/15 07:24:30;;;;;;;0.80;0.80;;;5.90;1.00;;;;;;5120861;27;20217;-79
2021/03/15 07:27:28;;;;;;;0.77;0.77;;;6.30;1.00;;;;;;5125124;27;20211;-80
2021/03/15 07:30:30;;;;;;;0.60;0.60;;;6.20;99.90;;;;;;5142097;27;20206;-78
2021/03/15 07:33:21;;;;;;;0.65;0.65;;;6.10;99.90;;;;;;5126155;27;20228;-77
2021/03/15 07:36:11;;;;;;;0.68;0.68;;;6.00;99.90;;;;;;5125248;27;20859;-78
2021/03/15 07:39:00;;;;;;;0.65;0.65;;;6.20;99.90;;;;;;5135195;27;20225;-76
2021/03/15 07:42:05;;;;;;;0.70;0.70;;;6.00;99.90;;;;;;5114917;27;20211;-77
2021/03/15 07:44:52;;;;;;;1.02;0.60;;;5.80;1.00;;;;;;5127127;27;20819;-78
2021/03/15 07:47:40;;;;;;;1.75;0.73;;;5.80;1.00;;;;;;5121087;27;20245;-78
2021/03/15 07:50:27;;;;;;;1.58;0.65;;;5.70;1.00;;;;;;5114423;27;20219;-77
2021/03/15 07:53:15;;;;;;;0.80;0.80;;;5.90;1.40;;;;;;5126117;27;20232;-77
2021/03/15 07:56:04;;;;;;;0.82;0.82;;;5.90;99.90;;;;;;5118240;27;20220;-76
2021/03/15 07:58:53;;;;;;;0.80;0.80;;;5.70;1.00;;;;;;5120229;27;20771;-79
2021/03/15 08:01:42;;;;;;;0.88;0.88;;;5.80;1.00;;;;;;5126301;27;20215;-79
2021/03/15 08:04:30;;;;;;;0.82;0.82;;;5.70;1.00;;;;;;5120336;27;20256;-80
2021/03/15 08:07:20;;;;;;;0.60;0.60;;;5.60;99.90;;;;;;5125245;27;20929;-78
2021/03/15 08:10:08;;;;;;;0.80;0.70;;;5.70;99.90;;;;;;5119106;27;20214;-77
2021/03/15 08:12:57;;;;;;;0.82;0.82;;;5.80;41.00;;;;;;5132118;27;20211;-80
2021/03/15 08:15:47;;;;;;;0.80;0.80;;;5.70;99.90;;;;;;5128417;27;20218;-78
2021/03/15 08:18:35;;;;;;;1.00;0.90;;;5.70;1.00;;;;;;5122194;27;20236;-78
2021/03/15 08:21:27;;;;;;;0.70;0.70;;;5.80;1.00;;;;;;5126952;27;20204;-78
2021/03/15 08:24:16;;;;;;;1.35;0.93;;;5.80;99.90;;;;;;5129310;27;20226;-79
2021/03/15 08:27:04;;;;;;;0.90;0.80;;;6.00;99.90;;;;;;5123804;27;20216;-77
2021/03/15 08:29:55;;;;;;;1.25;0.60;;;6.10;1.00;;;;;;5122035;27;20206;-79
2021/03/15 08:32:45;;;;;;;0.70;0.70;;;6.20;99.90;;;;;;5115272;27;20234;-79
2021/03/15 08:35:33;;;;;;;0.73;0.73;;;6.00;99.90;;;;;;5126900;27;20768;-79
2021/03/15 08:38:29;;;;;;;1.50;1.40;;;6.20;50.50;;;;;;5127518;27;20262;-77
2021/03/15 08:41:22;;;;;;;1.42;1.35;;;6.50;1.00;;;;;;5119433;27;20211;-79
2021/03/15 08:44:39;;;;;;;0.70;0.70;;;6.00;99.90;;;;;;5121601;27;20215;-76
2021/03/15 08:48:00;;;;;;;1.83;0.80;;;6.10;1.00;;;;;;5121953;27;20230;-75
2021/03/15 08:50:48;;;;;;;0.75;0.75;;;6.40;1.00;;;;;;5086031;27;20205;-76
2021/03/15 08:53:51;;;;;;;0.65;0.50;;;6.20;1.00;;;;;;5117005;27;20207;-78
2021/03/15 08:56:42;;;;;;;0.50;0.50;;;6.30;1.00;;;;;;5119164;27;20596;-76
2021/03/15 08:59:34;;;;;;;0.40;0.40;;;6.80;1.00;;;;;;5115516;27;20257;-77
2021/03/15 09:02:34;;;;;;;0.50;0.50;;;6.30;1.00;;;;;;5116883;27;20203;-78
2021/03/15 09:05:26;;;;;;;0.50;0.50;;;6.50;1.00;;;;;;5121670;27;20713;-77
2021/03/15 09:08:13;;;;;;;0.50;0.50;;;6.60;99.90;;;;;;5117756;27;20598;-77
2021/03/15 09:11:01;;;;;;;0.60;0.60;;;6.10;99.90;;;;;;5124840;27;20204;-79
2021/03/15 09:13:48;;;;;;;1.02;0.60;;;6.70;99.90;;;;;;5116536;27;20722;-76
2021/03/15 09:16:36;;;;;;;0.70;0.50;;;6.90;99.90;;;;;;5121801;27;20867;-76
2021/03/15 09:19:25;;;;;;;0.70;0.70;;;7.00;99.90;;;;;;5118400;27;20237;-76
2021/03/15 09:22:23;;;;;;;1.02;0.50;;;7.10;99.90;;;;;;5121743;27;20430;-77
2021/03/15 09:25:22;;;;;;;0.93;0.40;;;7.10;99.90;;;;;;5120893;27;20205;-76
2021/03/15 09:28:10;;;;;;;0.50;0.50;;;7.10;99.90;;;;;;5121383;27;20233;-77
2021/03/15 09:31:09;;;;;;;0.60;0.60;;;7.20;99.90;;;;;;5124655;27;20441;-77
2021/03/15 09:33:57;;;;;;;0.60;0.60;;;7.20;99.90;;;;;;5122681;27;20452;-75
2021/03/15 09:36:46;;;;;;;1.53;0.67;;;7.30;99.90;;;;;;5120119;27;22519;-78
2021/03/15 09:39:35;;;;;;;2.17;0.60;;;7.20;99.90;;;;;;5127343;27;20475;-77
2021/03/15 09:42:22;;;;;;;0.90;0.60;;;7.20;99.90;;;;;;5110105;27;20449;-76
2021/03/15 09:45:13;;;;;;;0.70;0.70;;;7.20;99.90;;;;;;5121861;27;20216;-76
2021/03/15 09:48:01;;;;;;;0.60;0.60;;;7.30;99.90;;;;;;5118661;27;20478;-76
2021/03/15 09:50:51;;;;;;;1.00;0.90;;;7.40;99.90;;;;;;5124011;27;21299;-77
2021/03/15 09:53:44;;;;;;;1.00;0.77;;;7.40;99.90;;;;;;5120323;27;20986;-79
2021/03/15 09:56:32;;;;;;;0.70;0.70;;;7.40;99.90;;;;;;5116560;27;20465;-77
2021/03/15 09:59:19;;;;;;;1.63;0.70;;;7.40;99.90;;;;;;5113338;27;20730;-78
2021/03/15 10:02:07;;;;;;;0.90;0.90;;;7.80;99.90;;;;;;5125341;27;20496;-78
2021/03/15 10:04:55;;;;;;;1.10;1.00;;;7.40;99.90;;;;;;5115748;27;20446;-77
2021/03/15 10:07:47;;;;;;;1.20;1.10;;;7.50;99.90;;;;;;5112691;27;20478;-80
2021/03/15 10:10:37;;;;;;;0.60;0.60;;;7.60;99.90;;;;;;5114367;27;20465;-79
2021/03/15 10:13:25;;;;;;;1.60;0.93;;;7.50;1.00;;;;;;5124978;27;20620;-79
2021/03/15 10:16:13;;;;;;;1.47;1.03;;;7.50;1.00;;;;;;5117357;27;20471;-78
2021/03/15 10:19:01;;;;;;;2.40;1.40;;;7.50;1.00;;;;;;5114104;28;20477;-79
2021/03/15 10:21:49;;;;;;;1.20;1.10;;;7.60;1.00;;;;;;5120420;28;20464;-79
2021/03/15 10:24:38;;;;;;;0.70;0.70;;;7.60;99.90;;;;;;5120204;28;20456;-79
2021/03/15 10:27:28;;;;;;;0.80;0.80;;;7.50;1.00;;;;;;5122009;27;20471;-77
2021/03/15 10:30:17;;;;;;;1.50;1.20;;;7.90;1.00;;;;;;5117755;27;20856;-79
2021/03/15 10:33:05;;;;;;;1.00;0.90;;;7.60;99.90;;;;;;5127507;27;20477;-79
2021/03/15 10:35:56;;;;;;;1.10;1.00;;;7.70;99.90;;;;;;5130248;27;21011;-80
2021/03/15 10:38:43;;;;;;;1.40;1.30;;;7.70;99.90;;;;;;5131449;27;20496;-79
2021/03/15 10:41:31;;;;;;;2.03;1.10;;;7.70;99.90;;;;;;5131214;27;20557;-78
2021/03/15 10:44:38;;;;;;;1.27;1.00;;;7.70;1.00;;;;;;5124695;27;21057;-78
2021/03/15 10:47:32;;;;;;;1.43;1.20;;;7.70;1.00;;;;;;5123007;27;21123;-75
2021/03/15 10:50:27;;;;;;;1.20;1.10;;;7.70;1.00;;;;;;5120803;27;21239;-78
2021/03/15 10:53:16;;;;;;;1.00;1.00;;;7.70;1.00;;;;;;5125161;27;20465;-79
2021/03/15 10:56:15;;;;;;;1.00;0.90;;;7.60;1.00;;;;;;5122696;27;20490;-78
2021/03/15 10:59:03;;;;;;;2.70;0.90;;;7.70;1.00;;;;;;5117065;27;20240;-78
2021/03/15 11:01:52;;;;;;;1.10;1.00;;;7.80;1.00;;;;;;5126004;27;20840;-78
2021/03/15 11:04:41;;;;;;;2.10;1.10;;;7.70;1.00;;;;;;5128806;27;20495;-79
2021/03/15 11:07:31;;;;;;;2.40;1.10;;;7.60;98.60;;;;;;5117584;27;20464;-78
2021/03/15 11:10:21;;;;;;;1.37;1.27;;;7.70;12.40;;;;;;5121078;27;20468;-77
2021/03/15 11:13:16;;;;;;;1.97;1.00;;;7.70;1.00;;;;;;5128637;27;20532;-78
2021/03/15 11:16:16;;;;;;;1.87;1.10;;;7.70;1.00;;;;;;5121819;27;20436;-77
2021/03/15 11:19:08;;;;;;;6.53;0.90;;;7.80;1.00;;;;;;5122870;27;20462;-78
2021/03/15 11:21:58;;;;;;;1.20;1.10;;;7.80;99.90;;;;;;5131750;27;20439;-77
2021/03/15 11:24:46;;;;;;;1.53;1.20;;;7.90;1.00;;;;;;5123730;27;20471;-77
2021/03/15 11:27:34;;;;;;;1.50;1.40;;;7.90;1.00;;;;;;5128363;27;20453;-79
2021/03/15 11:30:26;;;;;;;1.83;1.03;;;8.00;1.00;;;;;;5115653;27;20215;-78
2021/03/15 11:33:14;;;;;;;2.03;1.20;;;8.00;99.90;;;;;;5128428;27;20435;-78
2021/03/15 11:36:13;;;;;;;4.20;1.37;;;8.10;99.90;;;;;;5124176;27;20445;-78
2021/03/15 11:39:06;;;;;;;2.00;1.30;;;8.10;99.90;;;;;;5125848;27;20461;-77
2021/03/15 11:41:53;;;;;;;3.53;1.63;;;8.20;99.90;;;;;;5115637;27;20463;-77
2021/03/15 11:44:40;;;;;;;1.57;1.47;;;8.30;99.90;;;;;;5123516;27;20725;-79
2021/03/15 11:47:28;;;;;;;1.27;1.10;;;8.30;99.90;;;;;;5113651;27;20986;-78
2021/03/15 11:50:16;;;;;;;1.30;1.10;;;8.30;99.90;;;;;;5119730;27;20462;-78
2021/03/15 11:53:05;;;;;;;1.47;1.33;;;8.40;99.90;;;;;;5123522;27;20454;-78
2021/03/15 11:55:54;;;;;;;1.33;1.10;;;8.40;99.90;;;;;;5122268;27;20429;-77
2021/03/15 11:58:41;;;;;;;1.27;1.07;;;8.40;1.00;;;;;;5126689;27;20498;-79
2021/03/15 12:01:29;;;;;;;0.93;0.83;;;8.40;99.90;;;;;;5128089;27;20468;-79
2021/03/15 12:04:17;;;;;;;0.93;0.90;;;8.30;1.00;;;;;;5127447;27;20987;-78
2021/03/15 12:07:04;;;;;;;0.87;0.87;;;8.40;99.90;;;;;;5123926;27;20457;-78
2021/03/15 12:09:52;;;;;;;1.10;1.00;;;8.50;99.90;;;;;;5113886;27;20453;-77
2021/03/15 12:12:40;;;;;;;0.70;0.70;;;8.50;99.90;;;;;;5125294;27;20472;-77
2021/03/15 12:15:48;;;;;;;0.90;0.90;;;8.10;99.90;;;;;;5121701;27;20501;-79
2021/03/15 12:18:35;;;;;;;1.37;0.90;;;8.20;99.90;;;;;;5118589;27;21133;-79
2021/03/15 12:21:23;;;;;;;1.60;1.30;;;8.40;99.90;;;;;;5121743;27;20460;-78
2021/03/15 12:24:11;;;;;;;1.50;1.20;;;8.40;99.90;;;;;;5129084;27;20218;-75
2021/03/15 12:26:59;;;;;;;1.43;1.33;;;8.40;1.00;;;;;;5130995;27;20633;-78
2021/03/15 12:29:48;;;;;;;1.43;1.20;;;8.50;99.90;;;;;;5126262;27;20829;-77
2021/03/15 12:32:35;;;;;;;1.40;1.30;;;8.40;1.00;;;;;;5117835;27;20460;-77
2021/03/15 12:35:24;;;;;;;1.37;1.20;;;8.50;99.90;;;;;;5129628;27;20437;-80
2021/03/15 12:38:12;;;;;;;1.50;1.40;;;8.50;1.00;;;;;;5130365;27;20451;-79
2021/03/15 12:40:59;;;;;;;1.40;1.30;;;8.60;1.00;;;;;;5129144;27;20446;-78
2021/03/15 12:43:47;;;;;;;1.33;1.23;;;8.70;99.90;;;;;;5129815;27;20454;-79
2021/03/15 12:46:35;;;;;;;1.47;1.37;;;8.80;99.90;;;;;;5128233;27;20457;-78
2021/03/15 12:49:24;;;;;;;1.30;1.20;;;8.80;99.90;;;;;;5121917;27;20598;-78
2021/03/15 12:52:11;;;;;;;1.50;1.17;;;8.80;99.90;;;;;;5121051;27;20467;-79
2021/03/15 12:54:59;;;;;;;2.00;1.33;;;8.80;53.90;;;;;;5121820;27;20454;-79
2021/03/15 12:57:46;;;;;;;1.70;1.17;;;8.90;1.00;;;;;;5120869;27;20479;-78
2021/03/15 13:00:34;;;;;;;1.30;1.20;;;8.90;1.00;;;;;;5129305;27;20455;-77
2021/03/15 13:03:23;;;;;;;1.40;1.30;;;9.00;1.00;;;;;;5121422;27;20621;-79
2021/03/15 13:06:11;;;;;;;2.50;1.70;;;9.00;1.00;;;;;;5128984;27;20458;-79
2021/03/15 13:08:58;;;;;;;1.70;1.47;;;8.90;1.00;;;;;;5124406;27;20616;-77
2021/03/15 13:11:46;;;;;;;1.40;1.30;;;8.90;1.00;;;;;;5126876;27;20442;-79
2021/03/15 13:14:34;;;;;;;1.90;1.27;;;9.00;1.00;;;;;;5127066;27;20448;-79
2021/03/15 13:17:21;;;;;;;1.60;1.50;;;8.90;1.00;;;;;;5121468;27;21267;-78
2021/03/15 13:20:11;;;;;;;1.53;1.43;;;9.10;1.00;;;;;;5124413;27;20467;-80
2021/03/15 13:22:58;;;;;;;1.90;1.80;;;9.10;1.00;;;;;;5121892;27;20571;-79
2021/03/15 13:25:46;;;;;;;1.77;1.43;;;9.00;99.90;;;;;;5124962;27;20465;-78
2021/03/15 13:28:33;;;;;;;2.23;2.00;;;9.20;1.00;;;;;;5120968;27;21224;-76
2021/03/15 13:31:21;;;;;;;1.50;1.40;;;9.10;99.90;;;;;;5115953;27;20837;-78
2021/03/15 13:34:09;;;;;;;1.50;1.40;;;9.10;1.00;;;;;;5112061;27;20440;-77
2021/03/15 13:36:57;;;;;;;2.47;1.57;;;9.30;99.90;;;;;;5122421;27;20462;-77
2021/03/15 13:39:45;;;;;;;2.80;2.30;;;9.30;99.90;;;;;;5114169;27;20454;-77
2021/03/15 13:42:36;;;;;;;2.70;1.80;;;9.40;99.90;;;;;;5122248;27;20209;-78
2021/03/15 13:45:24;;;;;;;1.93;1.73;;;9.50;99.90;;;;;;5126302;27;20976;-79
2021/03/15 13:48:12;;;;;;;1.60;1.50;;;9.70;99.90;;;;;;5117651;27;20460;-78
2021/03/15 13:51:00;;;;;;;3.90;1.70;;;9.90;99.90;;;;;;5117732;27;20456;-77
2021/03/15 13:53:48;;;;;;;2.80;1.73;;;10.00;99.90;;;;;;5116247;27;20444;-77
2021/03/15 13:56:36;;;;;;;2.60;2.40;;;10.00;99.90;;;;;;5118046;27;20447;-78
2021/03/15 13:59:23;;;;;;;4.23;1.90;;;10.00;99.90;;;;;;5112133;27;20468;-78
2021/03/15 14:02:11;;;;;;;2.03;1.57;;;10.10;99.90;;;;;;5125922;27;20451;-76
2021/03/15 14:05:01;;;;;;;3.63;2.03;;;10.20;99.90;;;;;;5124068;27;20578;-77
2021/03/15 14:07:51;;;;;;;1.87;1.70;;;10.20;99.90;;;;;;5125024;27;20490;-77
2021/03/15 14:10:39;;;;;;;14.90;7.10;;;9.90;99.90;;;;;;5115626;27;20544;-78
2021/03/15 14:13:27;;;;;;;2.37;2.17;;;9.60;99.90;;;;;;5113826;27;20435;-77
2021/03/15 14:16:14;;;;;;;1.80;1.70;;;9.50;99.90;;;;;;5113482;27;20491;-78
2021/03/15 14:19:02;;;;;;;2.40;1.80;;;9.60;99.90;;;;;;5111002;27;20492;-77
2021/03/15 14:21:49;;;;;;;1.80;1.70;;;9.60;99.90;;;;;;5121300;28;20459;-77
2021/03/15 14:24:37;;;;;;;4.43;2.40;;;9.50;99.90;;;;;;5114614;28;20972;-77
2021/03/15 14:27:25;;;;;;;2.63;2.43;;;9.50;99.90;;;;;;5114262;28;20448;-78
2021/03/15 14:30:14;;;;;;;2.20;1.87;;;9.60;99.90;;;;;;5131241;27;20447;-79
2021/03/15 14:33:01;;;;;;;2.33;1.80;;;9.70;99.90;;;;;;5109994;28;20452;-78
2021/03/15 14:35:49;;;;;;;3.00;1.60;;;9.80;99.90;;;;;;5115910;28;20463;-78
2021/03/15 14:38:37;;;;;;;4.37;2.27;;;9.90;99.90;;;;;;5117488;28;20527;-79
2021/03/15 14:41:24;;;;;;;3.20;1.97;;;10.00;99.90;;;;;;5123317;27;20444;-78
2021/03/15 14:44:13;;;;;;;1.70;1.60;;;9.90;99.90;;;;;;5114145;27;20838;-78
2021/03/15 14:47:00;;;;;;;1.60;1.50;;;9.90;99.90;;;;;;5124794;27;20460;-77
2021/03/15 14:49:48;;;;;;;2.27;1.50;;;9.80;99.90;;;;;;5121609;28;20439;-78
2021/03/15 14:52:36;;;;;;;1.40;1.30;;;9.90;99.90;;;;;;5122187;28;20461;-78
2021/03/15 14:55:24;;;;;;;2.00;1.20;;;9.90;99.90;;;;;;5121633;28;20859;-74
2021/03/15 14:58:11;;;;;;;1.30;1.17;;;9.90;99.90;;;;;;5120591;28;20225;-75
2021/03/15 15:00:59;;;;;;;1.07;0.90;;;10.00;99.90;;;;;;5121661;28;20833;-80
2021/03/15 15:04:00;;;;;;;1.27;1.00;;;10.10;99.90;;;;;;5128575;27;20445;-78